sensor_id;sensor_type;location;lat;lon;timestamp;P1;durP1;ratioP1;P2;durP2;ratioP2
35223;SDS011;21367;51.930;8.112;2023-09-30T00:04:18;20.33;;;4.28;;
35223;SDS011;21367;51.930;8.112;2023-09-30T00:09:21;17.80;;;4.20;;
35223;SDS011;21367;51.930;8.112;2023-09-30T00:14:25;17.77;;;4.68;;
35223;SDS011;21367;51.930;8.112;2023-09-30T00:19:32;27.98;;;4.60;;
35223;SDS011;21367;51.930;8.112;2023-09-30T00:24:36;19.75;;;4.35;;
35223;SDS011;21367;51.930;8.112;2023-09-30T00:29:39;23.20;;;4.75;;
35223;SDS011;21367;51.930;8.112;2023-09-30T00:34:46;22.98;;;4.63;;
35223;SDS011;21367;51.930;8.112;2023-09-30T00:44:53;22.45;;;5.10;;
35223;SDS011;21367;51.930;8.112;2023-09-30T00:49:59;28.13;;;4.68;;
35223;SDS011;21367;51.930;8.112;2023-09-30T00:55:04;24.45;;;4.43;;
35223;SDS011;21367;51.930;8.112;2023-09-30T01:05:16;21.58;;;4.75;;
35223;SDS011;21367;51.930;8.112;2023-09-30T01:15:23;25.13;;;5.18;;
35223;SDS011;21367;51.930;8.112;2023-09-30T01:20:30;22.42;;;5.28;;
35223;SDS011;21367;51.930;8.112;2023-09-30T01:25:36;24.08;;;4.55;;
35223;SDS011;21367;51.930;8.112;2023-09-30T01:35:45;23.42;;;4.63;;
35223;SDS011;21367;51.930;8.112;2023-09-30T01:40:51;25.15;;;5.32;;
35223;SDS011;21367;51.930;8.112;2023-09-30T01:50:58;22.95;;;4.45;;
35223;SDS011;21367;51.930;8.112;2023-09-30T01:56:04;26.90;;;4.53;;
35223;SDS011;21367;51.930;8.112;2023-09-30T02:01:09;24.55;;;4.65;;
35223;SDS011;21367;51.930;8.112;2023-09-30T02:06:13;27.42;;;4.90;;
35223;SDS011;21367;51.930;8.112;2023-09-30T02:11:21;28.87;;;4.87;;
35223;SDS011;21367;51.930;8.112;2023-09-30T02:21:28;27.35;;;6.00;;
35223;SDS011;21367;51.930;8.112;2023-09-30T02:26:34;25.85;;;4.93;;
35223;SDS011;21367;51.930;8.112;2023-09-30T02:31:39;26.52;;;4.75;;
35223;SDS011;21367;51.930;8.112;2023-09-30T02:36:43;21.52;;;4.63;;
35223;SDS011;21367;51.930;8.112;2023-09-30T02:41:49;25.13;;;5.05;;
35223;SDS011;21367;51.930;8.112;2023-09-30T02:46:53;19.45;;;4.85;;
35223;SDS011;21367;51.930;8.112;2023-09-30T02:51:57;25.40;;;4.97;;
35223;SDS011;21367;51.930;8.112;2023-09-30T02:57:03;24.55;;;5.07;;
35223;SDS011;21367;51.930;8.112;2023-09-30T03:02:09;34.30;;;5.53;;
35223;SDS011;21367;51.930;8.112;2023-09-30T03:07:13;27.25;;;5.50;;
35223;SDS011;21367;51.930;8.112;2023-09-30T03:12:19;23.42;;;5.35;;
35223;SDS011;21367;51.930;8.112;2023-09-30T03:17:23;25.58;;;4.95;;
35223;SDS011;21367;51.930;8.112;2023-09-30T03:22:27;27.20;;;4.75;;
35223;SDS011;21367;51.930;8.112;2023-09-30T03:27:33;25.45;;;4.90;;
35223;SDS011;21367;51.930;8.112;2023-09-30T03:32:37;34.10;;;5.95;;
35223;SDS011;21367;51.930;8.112;2023-09-30T03:37:41;23.95;;;5.00;;
35223;SDS011;21367;51.930;8.112;2023-09-30T03:42:48;28.45;;;5.38;;
35223;SDS011;21367;51.930;8.112;2023-09-30T03:47:52;23.48;;;5.50;;
35223;SDS011;21367;51.930;8.112;2023-09-30T03:53:00;17.98;;;4.53;;
35223;SDS011;21367;51.930;8.112;2023-09-30T03:58:07;20.67;;;5.03;;
35223;SDS011;21367;51.930;8.112;2023-09-30T04:03:13;23.98;;;5.47;;
35223;SDS011;21367;51.930;8.112;2023-09-30T04:08:17;27.40;;;5.18;;
35223;SDS011;21367;51.930;8.112;2023-09-30T04:13:25;36.97;;;6.57;;
35223;SDS011;21367;51.930;8.112;2023-09-30T04:18:29;30.80;;;5.65;;
35223;SDS011;21367;51.930;8.112;2023-09-30T04:23:33;24.23;;;5.38;;
35223;SDS011;21367;51.930;8.112;2023-09-30T04:28:40;22.48;;;5.63;;
35223;SDS011;21367;51.930;8.112;2023-09-30T04:33:44;20.60;;;4.93;;
35223;SDS011;21367;51.930;8.112;2023-09-30T04:38:48;27.45;;;5.45;;
35223;SDS011;21367;51.930;8.112;2023-09-30T04:43:55;17.33;;;4.60;;
35223;SDS011;21367;51.930;8.112;2023-09-30T04:48:58;19.13;;;4.82;;
35223;SDS011;21367;51.930;8.112;2023-09-30T04:54:03;24.40;;;4.97;;
35223;SDS011;21367;51.930;8.112;2023-09-30T04:59:10;22.52;;;5.43;;
35223;SDS011;21367;51.930;8.112;2023-09-30T05:04:14;23.10;;;5.40;;
35223;SDS011;21367;51.930;8.112;2023-09-30T05:09:18;15.95;;;5.32;;
35223;SDS011;21367;51.930;8.112;2023-09-30T05:14:24;14.75;;;4.97;;
35223;SDS011;21367;51.930;8.112;2023-09-30T05:19:29;20.77;;;4.95;;
35223;SDS011;21367;51.930;8.112;2023-09-30T05:24:33;22.70;;;5.20;;
35223;SDS011;21367;51.930;8.112;2023-09-30T05:29:43;24.20;;;6.22;;
35223;SDS011;21367;51.930;8.112;2023-09-30T05:39:50;27.88;;;5.45;;
35223;SDS011;21367;51.930;8.112;2023-09-30T05:44:56;33.03;;;6.63;;
35223;SDS011;21367;51.930;8.112;2023-09-30T05:50:00;28.75;;;8.07;;
35223;SDS011;21367;51.930;8.112;2023-09-30T05:55:07;33.58;;;7.72;;
35223;SDS011;21367;51.930;8.112;2023-09-30T06:00:14;31.05;;;7.65;;
35223;SDS011;21367;51.930;8.112;2023-09-30T06:05:24;26.95;;;6.03;;
35223;SDS011;21367;51.930;8.112;2023-09-30T06:10:30;20.23;;;5.50;;
35223;SDS011;21367;51.930;8.112;2023-09-30T06:15:39;25.10;;;6.30;;
35223;SDS011;21367;51.930;8.112;2023-09-30T06:20:44;34.47;;;14.63;;
35223;SDS011;21367;51.930;8.112;2023-09-30T06:25:47;32.70;;;10.45;;
35223;SDS011;21367;51.930;8.112;2023-09-30T06:30:54;26.70;;;8.63;;
35223;SDS011;21367;51.930;8.112;2023-09-30T06:35:58;34.63;;;9.57;;
35223;SDS011;21367;51.930;8.112;2023-09-30T06:41:02;28.63;;;9.10;;
35223;SDS011;21367;51.930;8.112;2023-09-30T06:46:09;37.25;;;9.65;;
35223;SDS011;21367;51.930;8.112;2023-09-30T06:51:13;41.63;;;9.35;;
35223;SDS011;21367;51.930;8.112;2023-09-30T06:56:18;40.53;;;10.55;;
35223;SDS011;21367;51.930;8.112;2023-09-30T07:01:24;41.42;;;10.18;;
35223;SDS011;21367;51.930;8.112;2023-09-30T07:06:27;43.80;;;12.05;;
35223;SDS011;21367;51.930;8.112;2023-09-30T07:11:31;44.10;;;11.35;;
35223;SDS011;21367;51.930;8.112;2023-09-30T07:16:37;35.15;;;10.45;;
35223;SDS011;21367;51.930;8.112;2023-09-30T07:21:42;38.25;;;10.43;;
35223;SDS011;21367;51.930;8.112;2023-09-30T07:26:46;44.55;;;11.98;;
35223;SDS011;21367;51.930;8.112;2023-09-30T07:31:53;37.47;;;10.65;;
35223;SDS011;21367;51.930;8.112;2023-09-30T07:42:00;54.88;;;12.23;;
35223;SDS011;21367;51.930;8.112;2023-09-30T07:47:07;36.33;;;10.40;;
35223;SDS011;21367;51.930;8.112;2023-09-30T07:52:11;37.35;;;10.73;;
35223;SDS011;21367;51.930;8.112;2023-09-30T07:57:15;38.10;;;10.27;;
35223;SDS011;21367;51.930;8.112;2023-09-30T08:02:21;34.45;;;10.82;;
35223;SDS011;21367;51.930;8.112;2023-09-30T08:07:28;36.83;;;10.68;;
35223;SDS011;21367;51.930;8.112;2023-09-30T08:12:32;42.30;;;11.88;;
35223;SDS011;21367;51.930;8.112;2023-09-30T08:17:38;32.85;;;9.88;;
35223;SDS011;21367;51.930;8.112;2023-09-30T08:22:42;34.22;;;9.88;;
35223;SDS011;21367;51.930;8.112;2023-09-30T08:27:46;37.60;;;10.68;;
35223;SDS011;21367;51.930;8.112;2023-09-30T08:32:52;43.33;;;10.15;;
35223;SDS011;21367;51.930;8.112;2023-09-30T08:42:59;42.50;;;9.45;;
35223;SDS011;21367;51.930;8.112;2023-09-30T08:48:10;29.88;;;9.02;;
35223;SDS011;21367;51.930;8.112;2023-09-30T08:53:14;38.95;;;10.55;;
35223;SDS011;21367;51.930;8.112;2023-09-30T08:58:19;27.92;;;9.65;;
35223;SDS011;21367;51.930;8.112;2023-09-30T09:03:30;33.15;;;9.23;;
35223;SDS011;21367;51.930;8.112;2023-09-30T09:08:34;24.95;;;9.40;;
35223;SDS011;21367;51.930;8.112;2023-09-30T09:13:45;35.28;;;9.00;;
35223;SDS011;21367;51.930;8.112;2023-09-30T09:18:53;30.67;;;8.60;;
35223;SDS011;21367;51.930;8.112;2023-09-30T09:23:57;35.03;;;8.20;;
35223;SDS011;21367;51.930;8.112;2023-09-30T09:29:02;24.17;;;7.75;;
35223;SDS011;21367;51.930;8.112;2023-09-30T09:34:15;27.33;;;7.78;;
35223;SDS011;21367;51.930;8.112;2023-09-30T09:39:19;22.33;;;6.93;;
35223;SDS011;21367;51.930;8.112;2023-09-30T09:44:33;25.50;;;7.47;;
35223;SDS011;21367;51.930;8.112;2023-09-30T09:49:42;26.23;;;7.65;;
35223;SDS011;21367;51.930;8.112;2023-09-30T09:54:46;21.42;;;7.25;;
35223;SDS011;21367;51.930;8.112;2023-09-30T09:59:49;24.17;;;7.25;;
35223;SDS011;21367;51.930;8.112;2023-09-30T10:04:56;23.52;;;6.40;;
35223;SDS011;21367;51.930;8.112;2023-09-30T10:10:02;19.33;;;5.85;;
35223;SDS011;21367;51.930;8.112;2023-09-30T10:20:43;26.17;;;6.72;;
35223;SDS011;21367;51.930;8.112;2023-09-30T10:25:48;28.30;;;8.10;;
35223;SDS011;21367;51.930;8.112;2023-09-30T10:31:08;19.52;;;6.50;;
35223;SDS011;21367;51.930;8.112;2023-09-30T10:36:21;20.85;;;6.18;;
35223;SDS011;21367;51.930;8.112;2023-09-30T10:52:40;23.13;;;6.32;;
35223;SDS011;21367;51.930;8.112;2023-09-30T10:57:44;13.07;;;4.43;;
35223;SDS011;21367;51.930;8.112;2023-09-30T11:02:48;16.98;;;4.28;;
35223;SDS011;21367;51.930;8.112;2023-09-30T11:07:55;20.92;;;4.50;;
35223;SDS011;21367;51.930;8.112;2023-09-30T11:13:00;19.88;;;5.60;;
35223;SDS011;21367;51.930;8.112;2023-09-30T11:18:12;11.60;;;3.53;;
35223;SDS011;21367;51.930;8.112;2023-09-30T11:23:19;23.05;;;3.95;;
35223;SDS011;21367;51.930;8.112;2023-09-30T11:28:23;13.90;;;4.00;;
35223;SDS011;21367;51.930;8.112;2023-09-30T11:33:28;16.42;;;3.60;;
35223;SDS011;21367;51.930;8.112;2023-09-30T11:38:36;16.15;;;3.42;;
35223;SDS011;21367;51.930;8.112;2023-09-30T11:43:45;24.27;;;3.92;;
35223;SDS011;21367;51.930;8.112;2023-09-30T11:49:02;14.70;;;3.08;;
35223;SDS011;21367;51.930;8.112;2023-09-30T11:54:11;12.50;;;2.95;;
35223;SDS011;21367;51.930;8.112;2023-09-30T11:59:17;11.75;;;2.85;;
35223;SDS011;21367;51.930;8.112;2023-09-30T12:04:23;16.15;;;3.05;;
35223;SDS011;21367;51.930;8.112;2023-09-30T12:09:29;15.98;;;3.80;;
35223;SDS011;21367;51.930;8.112;2023-09-30T12:14:33;14.65;;;3.95;;
35223;SDS011;21367;51.930;8.112;2023-09-30T12:19:37;13.45;;;3.15;;
35223;SDS011;21367;51.930;8.112;2023-09-30T12:24:43;13.75;;;3.22;;
35223;SDS011;21367;51.930;8.112;2023-09-30T12:29:48;14.07;;;2.88;;
35223;SDS011;21367;51.930;8.112;2023-09-30T12:34:52;14.75;;;3.88;;
35223;SDS011;21367;51.930;8.112;2023-09-30T12:39:59;14.10;;;3.22;;
35223;SDS011;21367;51.930;8.112;2023-09-30T12:45:04;11.27;;;3.17;;
35223;SDS011;21367;51.930;8.112;2023-09-30T12:50:08;18.73;;;3.40;;
35223;SDS011;21367;51.930;8.112;2023-09-30T12:55:15;9.30;;;2.65;;
35223;SDS011;21367;51.930;8.112;2023-09-30T13:00:19;14.18;;;3.10;;
35223;SDS011;21367;51.930;8.112;2023-09-30T13:05:23;13.00;;;2.83;;
35223;SDS011;21367;51.930;8.112;2023-09-30T13:10:29;10.25;;;3.40;;
35223;SDS011;21367;51.930;8.112;2023-09-30T13:15:33;16.50;;;4.40;;
35223;SDS011;21367;51.930;8.112;2023-09-30T13:20:38;9.70;;;2.75;;
35223;SDS011;21367;51.930;8.112;2023-09-30T13:25:45;13.73;;;3.00;;
35223;SDS011;21367;51.930;8.112;2023-09-30T13:30:48;15.95;;;3.42;;
35223;SDS011;21367;51.930;8.112;2023-09-30T13:35:53;11.23;;;3.40;;
35223;SDS011;21367;51.930;8.112;2023-09-30T13:40:59;14.88;;;3.55;;
35223;SDS011;21367;51.930;8.112;2023-09-30T13:46:03;15.15;;;3.20;;
35223;SDS011;21367;51.930;8.112;2023-09-30T13:51:07;9.40;;;2.78;;
35223;SDS011;21367;51.930;8.112;2023-09-30T13:56:15;11.85;;;3.38;;
35223;SDS011;21367;51.930;8.112;2023-09-30T14:01:18;12.02;;;3.20;;
35223;SDS011;21367;51.930;8.112;2023-09-30T14:06:23;14.30;;;3.47;;
35223;SDS011;21367;51.930;8.112;2023-09-30T14:11:29;15.50;;;3.30;;
35223;SDS011;21367;51.930;8.112;2023-09-30T14:16:33;20.45;;;3.10;;
35223;SDS011;21367;51.930;8.112;2023-09-30T14:21:38;15.43;;;3.50;;
35223;SDS011;21367;51.930;8.112;2023-09-30T14:26:44;12.95;;;3.10;;
35223;SDS011;21367;51.930;8.112;2023-09-30T14:31:48;9.25;;;3.13;;
35223;SDS011;21367;51.930;8.112;2023-09-30T14:36:52;10.05;;;3.03;;
35223;SDS011;21367;51.930;8.112;2023-09-30T14:41:58;12.02;;;3.22;;
35223;SDS011;21367;51.930;8.112;2023-09-30T14:47:02;14.18;;;3.53;;
35223;SDS011;21367;51.930;8.112;2023-09-30T14:52:05;14.45;;;3.75;;
35223;SDS011;21367;51.930;8.112;2023-09-30T14:57:12;12.68;;;3.97;;
35223;SDS011;21367;51.930;8.112;2023-09-30T15:02:20;9.77;;;3.28;;
35223;SDS011;21367;51.930;8.112;2023-09-30T15:07:24;15.00;;;3.20;;
35223;SDS011;21367;51.930;8.112;2023-09-30T15:12:30;18.75;;;9.25;;
35223;SDS011;21367;51.930;8.112;2023-09-30T15:17:34;22.42;;;6.18;;
35223;SDS011;21367;51.930;8.112;2023-09-30T15:22:37;12.55;;;3.40;;
35223;SDS011;21367;51.930;8.112;2023-09-30T15:27:44;13.60;;;2.95;;
35223;SDS011;21367;51.930;8.112;2023-09-30T15:32:48;5.40;;;2.42;;
35223;SDS011;21367;51.930;8.112;2023-09-30T15:37:51;14.65;;;3.80;;
35223;SDS011;21367;51.930;8.112;2023-09-30T15:42:58;11.10;;;3.15;;
35223;SDS011;21367;51.930;8.112;2023-09-30T15:48:03;22.75;;;3.88;;
35223;SDS011;21367;51.930;8.112;2023-09-30T15:53:07;18.95;;;2.97;;
35223;SDS011;21367;51.930;8.112;2023-09-30T15:58:13;12.73;;;3.30;;
35223;SDS011;21367;51.930;8.112;2023-09-30T16:03:17;8.73;;;2.92;;
35223;SDS011;21367;51.930;8.112;2023-09-30T16:08:22;13.95;;;3.80;;
35223;SDS011;21367;51.930;8.112;2023-09-30T16:13:28;9.60;;;3.28;;
35223;SDS011;21367;51.930;8.112;2023-09-30T16:18:32;9.43;;;2.97;;
35223;SDS011;21367;51.930;8.112;2023-09-30T16:23:36;9.15;;;3.20;;
35223;SDS011;21367;51.930;8.112;2023-09-30T16:28:43;12.43;;;3.67;;
35223;SDS011;21367;51.930;8.112;2023-09-30T16:33:47;25.25;;;4.45;;
35223;SDS011;21367;51.930;8.112;2023-09-30T16:38:50;12.75;;;3.45;;
35223;SDS011;21367;51.930;8.112;2023-09-30T16:43:56;15.75;;;3.90;;
35223;SDS011;21367;51.930;8.112;2023-09-30T16:49:00;12.45;;;3.70;;
35223;SDS011;21367;51.930;8.112;2023-09-30T16:54:04;16.42;;;3.55;;
35223;SDS011;21367;51.930;8.112;2023-09-30T16:59:11;12.40;;;3.90;;
35223;SDS011;21367;51.930;8.112;2023-09-30T17:04:18;15.65;;;4.05;;
35223;SDS011;21367;51.930;8.112;2023-09-30T17:09:21;15.40;;;3.88;;
35223;SDS011;21367;51.930;8.112;2023-09-30T17:14:28;14.77;;;4.13;;
35223;SDS011;21367;51.930;8.112;2023-09-30T17:19:32;15.13;;;3.80;;
35223;SDS011;21367;51.930;8.112;2023-09-30T17:24:36;14.57;;;4.28;;
35223;SDS011;21367;51.930;8.112;2023-09-30T17:29:42;19.13;;;3.95;;
35223;SDS011;21367;51.930;8.112;2023-09-30T17:34:46;11.50;;;3.60;;
35223;SDS011;21367;51.930;8.112;2023-09-30T17:39:50;14.10;;;4.10;;
35223;SDS011;21367;51.930;8.112;2023-09-30T17:44:56;16.85;;;5.57;;
35223;SDS011;21367;51.930;8.112;2023-09-30T17:50:00;21.55;;;4.60;;
35223;SDS011;21367;51.930;8.112;2023-09-30T17:55:06;13.70;;;4.73;;
35223;SDS011;21367;51.930;8.112;2023-09-30T18:00:13;14.35;;;4.63;;
35223;SDS011;21367;51.930;8.112;2023-09-30T18:05:18;13.98;;;4.53;;
35223;SDS011;21367;51.930;8.112;2023-09-30T18:10:22;15.27;;;5.00;;
35223;SDS011;21367;51.930;8.112;2023-09-30T18:15:28;14.00;;;4.85;;
35223;SDS011;21367;51.930;8.112;2023-09-30T18:20:32;17.75;;;4.90;;
35223;SDS011;21367;51.930;8.112;2023-09-30T18:25:36;13.40;;;4.88;;
35223;SDS011;21367;51.930;8.112;2023-09-30T18:30:42;16.10;;;4.65;;
35223;SDS011;21367;51.930;8.112;2023-09-30T18:35:46;17.67;;;4.50;;
35223;SDS011;21367;51.930;8.112;2023-09-30T18:40:50;17.90;;;5.20;;
35223;SDS011;21367;51.930;8.112;2023-09-30T18:45:56;15.25;;;5.13;;
35223;SDS011;21367;51.930;8.112;2023-09-30T18:56:04;15.55;;;5.97;;
35223;SDS011;21367;51.930;8.112;2023-09-30T19:01:11;19.85;;;6.20;;
35223;SDS011;21367;51.930;8.112;2023-09-30T19:06:15;17.40;;;5.53;;
35223;SDS011;21367;51.930;8.112;2023-09-30T19:11:18;19.85;;;6.75;;
35223;SDS011;21367;51.930;8.112;2023-09-30T19:16:26;17.45;;;5.70;;
35223;SDS011;21367;51.930;8.112;2023-09-30T19:21:30;13.73;;;5.68;;
35223;SDS011;21367;51.930;8.112;2023-09-30T19:26:34;18.83;;;5.90;;
35223;SDS011;21367;51.930;8.112;2023-09-30T19:31:40;23.58;;;8.20;;
35223;SDS011;21367;51.930;8.112;2023-09-30T19:41:48;16.38;;;6.70;;
35223;SDS011;21367;51.930;8.112;2023-09-30T19:46:54;14.38;;;6.00;;
35223;SDS011;21367;51.930;8.112;2023-09-30T19:51:58;21.30;;;6.05;;
35223;SDS011;21367;51.930;8.112;2023-09-30T19:57:01;17.92;;;7.05;;
35223;SDS011;21367;51.930;8.112;2023-09-30T20:02:08;25.95;;;8.05;;
35223;SDS011;21367;51.930;8.112;2023-09-30T20:12:15;16.63;;;5.82;;
35223;SDS011;21367;51.930;8.112;2023-09-30T20:17:22;13.63;;;6.30;;
35223;SDS011;21367;51.930;8.112;2023-09-30T20:22:26;16.05;;;5.95;;
35223;SDS011;21367;51.930;8.112;2023-09-30T20:27:29;17.02;;;6.05;;
35223;SDS011;21367;51.930;8.112;2023-09-30T20:32:37;16.73;;;6.15;;
35223;SDS011;21367;51.930;8.112;2023-09-30T20:37:44;13.20;;;5.47;;
35223;SDS011;21367;51.930;8.112;2023-09-30T20:42:47;15.93;;;5.85;;
35223;SDS011;21367;51.930;8.112;2023-09-30T20:47:53;15.32;;;6.03;;
35223;SDS011;21367;51.930;8.112;2023-09-30T20:52:57;19.58;;;6.50;;
35223;SDS011;21367;51.930;8.112;2023-09-30T20:58:01;19.85;;;5.80;;
35223;SDS011;21367;51.930;8.112;2023-09-30T21:03:08;13.55;;;5.55;;
35223;SDS011;21367;51.930;8.112;2023-09-30T21:08:12;13.32;;;6.05;;
35223;SDS011;21367;51.930;8.112;2023-09-30T21:13:20;17.13;;;5.38;;
35223;SDS011;21367;51.930;8.112;2023-09-30T21:18:26;13.73;;;5.15;;
35223;SDS011;21367;51.930;8.112;2023-09-30T21:23:30;15.23;;;6.13;;
35223;SDS011;21367;51.930;8.112;2023-09-30T21:28:34;21.40;;;6.50;;
35223;SDS011;21367;51.930;8.112;2023-09-30T21:38:47;17.15;;;5.78;;
35223;SDS011;21367;51.930;8.112;2023-09-30T21:43:51;14.93;;;5.95;;
35223;SDS011;21367;51.930;8.112;2023-09-30T21:48:57;14.32;;;6.00;;
35223;SDS011;21367;51.930;8.112;2023-09-30T21:59:04;13.43;;;6.00;;
35223;SDS011;21367;51.930;8.112;2023-09-30T22:04:11;16.38;;;6.85;;
35223;SDS011;21367;51.930;8.112;2023-09-30T22:09:16;16.23;;;6.53;;
35223;SDS011;21367;51.930;8.112;2023-09-30T22:14:20;16.38;;;6.95;;
35223;SDS011;21367;51.930;8.112;2023-09-30T22:19:28;16.45;;;6.95;;
35223;SDS011;21367;51.930;8.112;2023-09-30T22:24:31;17.75;;;6.63;;
35223;SDS011;21367;51.930;8.112;2023-09-30T22:29:35;13.27;;;7.00;;
35223;SDS011;21367;51.930;8.112;2023-09-30T22:34:41;19.05;;;7.22;;
35223;SDS011;21367;51.930;8.112;2023-09-30T22:39:45;16.92;;;7.00;;
35223;SDS011;21367;51.930;8.112;2023-09-30T22:44:49;18.30;;;7.50;;
35223;SDS011;21367;51.930;8.112;2023-09-30T22:49:55;17.95;;;7.43;;
35223;SDS011;21367;51.930;8.112;2023-09-30T22:54:59;16.65;;;7.05;;
35223;SDS011;21367;51.930;8.112;2023-09-30T23:00:05;17.80;;;7.50;;
35223;SDS011;21367;51.930;8.112;2023-09-30T23:05:12;17.05;;;7.60;;
35223;SDS011;21367;51.930;8.112;2023-09-30T23:10:17;16.38;;;7.85;;
35223;SDS011;21367;51.930;8.112;2023-09-30T23:15:21;19.25;;;7.55;;
35223;SDS011;21367;51.930;8.112;2023-09-30T23:20:28;18.20;;;7.50;;
35223;SDS011;21367;51.930;8.112;2023-09-30T23:25:32;20.83;;;7.07;;
35223;SDS011;21367;51.930;8.112;2023-09-30T23:30:36;19.95;;;7.55;;
35223;SDS011;21367;51.930;8.112;2023-09-30T23:35:43;18.45;;;6.70;;
35223;SDS011;21367;51.930;8.112;2023-09-30T23:40:47;17.17;;;6.88;;
35223;SDS011;21367;51.930;8.112;2023-09-30T23:45:52;19.67;;;6.90;;
35223;SDS011;21367;51.930;8.112;2023-09-30T23:50:59;15.38;;;7.40;;
35223;SDS011;21367;51.930;8.112;2023-09-30T23:56:04;16.10;;;7.13;;
